METAR Data
IDs: Format: Raw Decoded Include TAF

Data at: 1931 UTC 14 Dec 2018

KCOT 141853Z AUTO 32019G27KT 10SM CLR 15/M03 A3017 RMK AO2 PK WND 33031/1826 SLP212 T01501033
KCOT 141753Z AUTO 31018G25KT 10SM CLR 14/M04 A3020 RMK AO2 PK WND 31029/1700 SLP222 T01391039 10139 20072 50006
KCOT 141653Z AUTO 31020G32KT 10SM CLR 12/M05 A3021 RMK AO2 PK WND 33035/1607 SLP229 T01221050
KCOT 141611Z AUTO 32025G35KT 10SM FEW002 11/M06 A3021 RMK AO2 PK WND 33035/1607 T01111056
KCOT 141553Z AUTO 32022G31KT 10SM CLR 11/M06 A3020 RMK AO2 PK WND 32034/1513 SLP225 T01111056
KCOT 141453Z AUTO 31018G26KT 10SM FEW002 09/M05 A3018 RMK AO2 PK WND 31030/1443 SLP217 T00941050 51027
KCOT 141436Z AUTO 31020G27KT 10SM FEW002 09/M05 A3017 RMK AO2 PK WND 31027/1424 T00891050
KCOT 141353Z AUTO 31013G20KT 10SM CLR 07/M04 A3015 RMK AO2 SLP208 T00721044
KCOT 141253Z AUTO 30011G19KT 10SM CLR 07/M04 A3013 RMK AO2 SLP201 T00721044
KCOT 141153Z AUTO 31014G21KT 10SM CLR 08/M04 A3010 RMK AO2 SLP190 70001 T00781044 10094 20078 53011
KCOT 141053Z AUTO 31011KT 10SM CLR 08/M04 A3008 RMK AO2 SLP183 T00831044
KCOT 140953Z AUTO 30010KT 10SM CLR 08/M04 A3008 RMK AO2 SLP182 T00831039
KCOT 140853Z AUTO 30010G18KT 10SM CLR 09/M04 A3006 RMK AO2 SLP177 T00891039 51003
KCOT 140753Z AUTO 30011KT 10SM FEW008 09/M03 A3006 RMK AO2 SLP175 T00891028
KCOT 140749Z AUTO 30010KT 10SM SCT008 09/M03 A3006 RMK AO2
KCOT 140736Z AUTO 30011G19KT 10SM BKN008 09/M02 A3006 RMK AO2 T00891022
KCOT 140710Z AUTO 30014G24KT 10SM OVC010 09/M02 A3005 RMK AO2 T00891017
KCOT 140653Z AUTO 30012G20KT 10SM OVC009 09/M01 A3005 RMK AO2 SLP173 T00891011
KCOT 140639Z AUTO 29012G19KT 10SM BKN007 09/00 A3005 RMK AO2 T00890000
KCOT 140630Z AUTO 29011G17KT 10SM SCT009 08/00 A3005 RMK AO2 T00830000
KCOT 140553Z AUTO 27006KT 10SM FEW120 08/01 A3008 RMK AO2 SLP180 T00780011 10122 20078 402170078 51004
KCOT 140453Z AUTO 30009KT 10SM CLR 08/01 A3008 RMK AO2 SLP181 T00830011
KCOT 140353Z AUTO 30010KT 10SM CLR 09/01 A3008 RMK AO2 SLP182 T00940011
KCOT 140253Z AUTO 29007KT 10SM CLR 10/02 A3006 RMK AO2 SLP177 T01000017 51019
KCOT 140153Z AUTO 31016G26KT 10SM FEW002 11/02 A3006 RMK AO2 PK WND 33027/0114 SLP176 T01110017
KCOT 140146Z AUTO 31015G24KT 10SM FEW002 SCT060 11/02 A3005 RMK AO2 PK WND 33027/0114 T01110017
KCOT 140053Z AUTO 32020G28KT 10SM OVC055 12/02 A3004 RMK AO2 PK WND 30033/0009 SLP168 T01170017
KCOT 132353Z AUTO 31021G29KT 10SM OVC055 12/02 A3001 RMK AO2 PK WND 33037/2311 SLP158 60000 T01220022 10217 20122 51041
KCOT 132253Z AUTO 31025G40KT 10SM FEW002 FEW055 13/02 A2999 RMK AO2 PK WND 32050/2221 RAB24E41 PRESRR SLP151 P0000 T01330017
KCOT 132153Z AUTO 31029G46KT 10SM CLR 15/02 A2993 RMK AO2 PK WND 32047/2057 SLP130 T01500022
KCOT 132053Z AUTO 30024G52KT 9SM CLR 18/02 A2989 RMK AO2 PK WND 33052/2045 RAB1954E11 SLP116 P0000 60000 T01780022 53016
KCOT 131953Z AUTO 30021G32KT 10SM CLR 21/M02 A2985 RMK AO2 PK WND 31034/1943 RAB28E48 SLP103 P0000 T02061022
KCOT 131853Z AUTO 31019G30KT 10SM CLR 22/03 A2983 RMK AO2 PK WND 32030/1853 SLP096 T02170033
KCOT 131753Z AUTO 31011G20KT 10SM CLR 21/08 A2984 RMK AO2 PK WND 31029/1703 RAB05E17 SLP098 P0001 60001 T02060083 10211 20083 51006
KCOT 131653Z AUTO 30013G18KT 10SM CLR 21/11 A2984 RMK AO2 SLP098 T02060106
KCOT 131553Z AUTO 30008KT 10SM CLR 16/13 A2984 RMK AO2 SLP099 T01560128
KCOT 131453Z AUTO 30004KT 8SM CLR 13/13 A2982 RMK AO2 SLP094 T01330128 51011
KCOT 131353Z AUTO 32003KT 3SM BR CLR 09/09 A2981 RMK AO2 SLP090 T00940094 $
KCOT 131351Z AUTO 33003KT 3SM BR CLR 09/09 A2980 RMK AO2 $
KCOT 131341Z AUTO 00000KT 2SM BR CLR 09/09 A2980 RMK AO2 T00890089 $
KCOT 131327Z AUTO 00000KT 3/4SM BR CLR 08/08 A2979 RMK AO2 T00830083
KCOT 131317Z AUTO 00000KT 2 1/2SM BR CLR 09/09 A2979 RMK AO2 T00940094
KCOT 131253Z AUTO 00000KT 5SM BR CLR 10/10 A2979 RMK AO2 SLP083 T01000100
KCOT 131153Z AUTO 25004KT 5SM BR CLR 10/10 A2978 RMK AO2 SLP080 70003 T01000100 10144 20100 53002
KCOT 131053Z AUTO 25003KT 8SM CLR 11/11 A2977 RMK AO2 SLP075 T01110111
KCOT 130953Z AUTO 26004KT 10SM CLR 12/12 A2977 RMK AO2 SLP075 T01220122
KCOT 130853Z AUTO 00000KT 9SM CLR 12/12 A2977 RMK AO2 SLP077 T01220122 56016
KCOT 130753Z AUTO 27004KT 8SM CLR 12/12 A2979 RMK AO2 SLP083 T01220122